sensor_id;sensor_type;location;lat;lon;timestamp;pressure;altitude;pressure_sealevel;temperature;humidity
8894;BME280;4483;48.622;9.230;2022-08-03T00:00:52;97934.84;;;22.05;73.23
8894;BME280;4483;48.622;9.230;2022-08-03T00:03:19;97929.47;;;22.06;73.06
8894;BME280;4483;48.622;9.230;2022-08-03T00:05:46;97933.72;;;22.07;72.69
8894;BME280;4483;48.622;9.230;2022-08-03T00:08:12;97926.34;;;21.91;73.08
8894;BME280;4483;48.622;9.230;2022-08-03T00:10:39;97928.63;;;21.85;73.55
8894;BME280;4483;48.622;9.230;2022-08-03T00:13:06;97926.28;;;21.82;73.86
8894;BME280;4483;48.622;9.230;2022-08-03T00:15:34;97927.69;;;21.86;73.57
8894;BME280;4483;48.622;9.230;2022-08-03T00:18:00;97929.63;;;21.84;73.40
8894;BME280;4483;48.622;9.230;2022-08-03T00:20:27;97925.22;;;21.84;73.48
8894;BME280;4483;48.622;9.230;2022-08-03T00:22:54;97923.94;;;21.79;73.72
8894;BME280;4483;48.622;9.230;2022-08-03T00:25:20;97928.69;;;21.74;73.54
8894;BME280;4483;48.622;9.230;2022-08-03T00:27:47;97933.34;;;21.70;73.73
8894;BME280;4483;48.622;9.230;2022-08-03T00:30:14;97929.22;;;21.68;74.04
8894;BME280;4483;48.622;9.230;2022-08-03T00:32:42;97928.75;;;21.63;74.18
8894;BME280;4483;48.622;9.230;2022-08-03T00:35:08;97931.38;;;21.63;74.25
8894;BME280;4483;48.622;9.230;2022-08-03T00:37:36;97933.31;;;21.61;74.07
8894;BME280;4483;48.622;9.230;2022-08-03T00:40:03;97926.41;;;21.60;74.03
8894;BME280;4483;48.622;9.230;2022-08-03T00:42:30;97927.47;;;21.57;74.20
8894;BME280;4483;48.622;9.230;2022-08-03T00:44:56;97922.84;;;21.61;73.99
8894;BME280;4483;48.622;9.230;2022-08-03T00:47:23;97921.59;;;21.65;74.25
8894;BME280;4483;48.622;9.230;2022-08-03T00:49:51;97925.34;;;21.72;73.97
8894;BME280;4483;48.622;9.230;2022-08-03T00:52:18;97920.00;;;21.73;73.69
8894;BME280;4483;48.622;9.230;2022-08-03T00:54:44;97920.81;;;21.74;73.48
8894;BME280;4483;48.622;9.230;2022-08-03T00:57:11;97929.66;;;21.73;73.41
8894;BME280;4483;48.622;9.230;2022-08-03T00:59:38;97923.72;;;21.71;73.38
8894;BME280;4483;48.622;9.230;2022-08-03T01:02:04;97920.38;;;21.69;73.41
8894;BME280;4483;48.622;9.230;2022-08-03T01:04:31;97923.00;;;21.69;73.52
8894;BME280;4483;48.622;9.230;2022-08-03T01:07:06;97920.22;;;21.61;72.99
8894;BME280;4483;48.622;9.230;2022-08-03T01:09:41;97920.72;;;21.55;73.70
8894;BME280;4483;48.622;9.230;2022-08-03T01:12:17;97915.03;;;21.50;74.05
8894;BME280;4483;48.622;9.230;2022-08-03T01:14:51;97919.03;;;21.54;74.02
8894;BME280;4483;48.622;9.230;2022-08-03T01:17:24;97915.06;;;21.59;73.70
8894;BME280;4483;48.622;9.230;2022-08-03T01:19:59;97909.25;;;21.56;73.77
8894;BME280;4483;48.622;9.230;2022-08-03T01:22:49;97909.66;;;21.51;73.69
8894;BME280;4483;48.622;9.230;2022-08-03T01:25:27;97908.38;;;21.46;73.87
8894;BME280;4483;48.622;9.230;2022-08-03T01:30:52;97902.94;;;21.38;74.20
8894;BME280;4483;48.622;9.230;2022-08-03T01:33:27;97899.34;;;21.39;74.21
8894;BME280;4483;48.622;9.230;2022-08-03T01:35:58;97897.94;;;21.35;74.34
8894;BME280;4483;48.622;9.230;2022-08-03T01:38:28;97895.56;;;21.32;74.20
8894;BME280;4483;48.622;9.230;2022-08-03T01:41:02;97896.09;;;21.26;74.52
8894;BME280;4483;48.622;9.230;2022-08-03T01:43:30;97890.97;;;21.24;74.43
8894;BME280;4483;48.622;9.230;2022-08-03T01:45:59;97897.75;;;21.27;74.46
8894;BME280;4483;48.622;9.230;2022-08-03T01:48:26;97890.00;;;21.25;74.45
8894;BME280;4483;48.622;9.230;2022-08-03T01:50:54;97900.22;;;21.28;74.38
8894;BME280;4483;48.622;9.230;2022-08-03T01:53:22;97900.84;;;21.21;74.10
8894;BME280;4483;48.622;9.230;2022-08-03T01:55:53;97897.44;;;21.20;74.19
8894;BME280;4483;48.622;9.230;2022-08-03T01:58:21;97889.34;;;21.12;74.88
8894;BME280;4483;48.622;9.230;2022-08-03T02:00:50;97894.47;;;21.14;74.24
8894;BME280;4483;48.622;9.230;2022-08-03T02:03:19;97894.00;;;21.09;74.83
8894;BME280;4483;48.622;9.230;2022-08-03T02:05:48;97896.50;;;21.10;74.77
8894;BME280;4483;48.622;9.230;2022-08-03T02:08:16;97887.00;;;21.09;74.44
8894;BME280;4483;48.622;9.230;2022-08-03T02:10:45;97883.41;;;21.10;74.47
8894;BME280;4483;48.622;9.230;2022-08-03T02:13:14;97893.06;;;21.10;74.25
8894;BME280;4483;48.622;9.230;2022-08-03T02:15:42;97887.00;;;20.98;74.84
8894;BME280;4483;48.622;9.230;2022-08-03T02:18:10;97891.66;;;20.94;74.66
8894;BME280;4483;48.622;9.230;2022-08-03T02:20:40;97898.56;;;20.95;74.62
8894;BME280;4483;48.622;9.230;2022-08-03T02:23:07;97883.69;;;20.96;74.87
8894;BME280;4483;48.622;9.230;2022-08-03T02:25:38;97886.66;;;20.91;74.23
8894;BME280;4483;48.622;9.230;2022-08-03T02:28:08;97887.63;;;20.90;74.69
8894;BME280;4483;48.622;9.230;2022-08-03T02:30:37;97888.69;;;20.88;75.01
8894;BME280;4483;48.622;9.230;2022-08-03T02:33:08;97889.41;;;20.90;74.34
8894;BME280;4483;48.622;9.230;2022-08-03T02:35:40;97893.13;;;20.87;74.50
8894;BME280;4483;48.622;9.230;2022-08-03T02:38:10;97890.75;;;20.84;74.38
8894;BME280;4483;48.622;9.230;2022-08-03T02:40:39;97885.38;;;20.86;74.50
8894;BME280;4483;48.622;9.230;2022-08-03T02:43:09;97886.91;;;20.88;74.59
8894;BME280;4483;48.622;9.230;2022-08-03T02:45:41;97887.63;;;20.90;74.31
8894;BME280;4483;48.622;9.230;2022-08-03T02:48:10;97876.19;;;20.91;74.18
8894;BME280;4483;48.622;9.230;2022-08-03T02:50:39;97878.94;;;20.90;74.09
8894;BME280;4483;48.622;9.230;2022-08-03T02:53:09;97880.03;;;20.87;74.25
8894;BME280;4483;48.622;9.230;2022-08-03T02:55:37;97875.72;;;20.86;73.82
8894;BME280;4483;48.622;9.230;2022-08-03T02:58:05;97883.84;;;20.83;74.01
8894;BME280;4483;48.622;9.230;2022-08-03T03:00:33;97883.28;;;20.80;74.28
8894;BME280;4483;48.622;9.230;2022-08-03T03:03:01;97881.84;;;20.76;74.54
8894;BME280;4483;48.622;9.230;2022-08-03T03:05:30;97888.03;;;20.75;74.24
8894;BME280;4483;48.622;9.230;2022-08-03T03:07:59;97881.72;;;20.77;74.21
8894;BME280;4483;48.622;9.230;2022-08-03T03:10:26;97879.09;;;20.77;73.94
8894;BME280;4483;48.622;9.230;2022-08-03T03:12:55;97879.09;;;20.77;74.18
8894;BME280;4483;48.622;9.230;2022-08-03T03:15:23;97885.66;;;20.72;74.00
8894;BME280;4483;48.622;9.230;2022-08-03T03:17:51;97887.69;;;20.68;74.36
8894;BME280;4483;48.622;9.230;2022-08-03T03:20:19;97885.34;;;20.65;74.23
8894;BME280;4483;48.622;9.230;2022-08-03T03:22:47;97883.66;;;20.64;74.10
8894;BME280;4483;48.622;9.230;2022-08-03T03:25:16;97883.91;;;20.61;74.37
8894;BME280;4483;48.622;9.230;2022-08-03T03:27:43;97887.00;;;20.55;74.70
8894;BME280;4483;48.622;9.230;2022-08-03T03:30:11;97881.78;;;20.55;74.85
8894;BME280;4483;48.622;9.230;2022-08-03T03:32:37;97887.72;;;20.57;74.68
8894;BME280;4483;48.622;9.230;2022-08-03T03:35:06;97879.16;;;20.55;74.35
8894;BME280;4483;48.622;9.230;2022-08-03T03:37:33;97874.06;;;20.54;74.17
8894;BME280;4483;48.622;9.230;2022-08-03T03:39:59;97874.19;;;20.52;74.44
8894;BME280;4483;48.622;9.230;2022-08-03T03:42:28;97882.88;;;20.53;74.15
8894;BME280;4483;48.622;9.230;2022-08-03T03:44:55;97885.72;;;20.50;74.65
8894;BME280;4483;48.622;9.230;2022-08-03T03:47:22;97878.97;;;20.47;74.20
8894;BME280;4483;48.622;9.230;2022-08-03T03:49:49;97879.41;;;20.52;74.57
8894;BME280;4483;48.622;9.230;2022-08-03T03:52:15;97880.00;;;20.56;74.22
8894;BME280;4483;48.622;9.230;2022-08-03T03:54:43;97894.75;;;20.57;73.95
8894;BME280;4483;48.622;9.230;2022-08-03T03:57:11;97887.28;;;20.52;74.11
8894;BME280;4483;48.622;9.230;2022-08-03T03:59:40;97888.78;;;20.55;74.11
8894;BME280;4483;48.622;9.230;2022-08-03T04:02:08;97880.84;;;20.56;73.93
8894;BME280;4483;48.622;9.230;2022-08-03T04:04:35;97890.59;;;20.54;73.84
8894;BME280;4483;48.622;9.230;2022-08-03T04:07:22;97892.50;;;20.52;73.75
8894;BME280;4483;48.622;9.230;2022-08-03T04:10:11;97890.25;;;20.48;73.58
8894;BME280;4483;48.622;9.230;2022-08-03T04:12:58;97886.81;;;20.47;74.17
8894;BME280;4483;48.622;9.230;2022-08-03T04:15:28;97894.75;;;20.46;73.74
8894;BME280;4483;48.622;9.230;2022-08-03T04:17:58;97893.69;;;20.48;74.08
8894;BME280;4483;48.622;9.230;2022-08-03T04:20:27;97895.59;;;20.46;73.59
8894;BME280;4483;48.622;9.230;2022-08-03T04:22:56;97896.56;;;20.45;73.75
8894;BME280;4483;48.622;9.230;2022-08-03T04:25:28;97895.34;;;20.49;73.69
8894;BME280;4483;48.622;9.230;2022-08-03T04:27:56;97897.75;;;20.52;73.25
8894;BME280;4483;48.622;9.230;2022-08-03T04:30:26;97894.41;;;20.50;72.92
8894;BME280;4483;48.622;9.230;2022-08-03T04:32:55;97897.63;;;20.43;73.38
8894;BME280;4483;48.622;9.230;2022-08-03T04:35:23;97896.59;;;20.34;74.00
8894;BME280;4483;48.622;9.230;2022-08-03T04:37:51;97893.47;;;20.29;74.38
8894;BME280;4483;48.622;9.230;2022-08-03T04:40:21;97904.66;;;20.31;74.31
8894;BME280;4483;48.622;9.230;2022-08-03T04:42:52;97902.41;;;20.27;74.66
8894;BME280;4483;48.622;9.230;2022-08-03T04:45:21;97906.22;;;20.23;75.21
8894;BME280;4483;48.622;9.230;2022-08-03T04:47:49;97909.69;;;20.23;75.19
8894;BME280;4483;48.622;9.230;2022-08-03T04:50:16;97899.56;;;20.19;75.42
8894;BME280;4483;48.622;9.230;2022-08-03T04:52:44;97902.28;;;20.28;75.37
8894;BME280;4483;48.622;9.230;2022-08-03T04:55:11;97907.75;;;20.36;75.10
8894;BME280;4483;48.622;9.230;2022-08-03T04:57:38;97917.72;;;20.42;75.06
8894;BME280;4483;48.622;9.230;2022-08-03T05:00:05;97909.41;;;20.48;74.85
8894;BME280;4483;48.622;9.230;2022-08-03T05:02:32;97910.34;;;20.58;74.88
8894;BME280;4483;48.622;9.230;2022-08-03T05:05:00;97916.25;;;20.71;74.11
8894;BME280;4483;48.622;9.230;2022-08-03T05:07:27;97911.38;;;20.78;74.04
8894;BME280;4483;48.622;9.230;2022-08-03T05:09:53;97912.13;;;20.89;73.97
8894;BME280;4483;48.622;9.230;2022-08-03T05:12:20;97908.91;;;20.97;73.71
8894;BME280;4483;48.622;9.230;2022-08-03T05:14:48;97909.16;;;21.05;73.63
8894;BME280;4483;48.622;9.230;2022-08-03T05:17:14;97917.09;;;21.15;73.25
8894;BME280;4483;48.622;9.230;2022-08-03T05:19:41;97918.88;;;21.14;73.36
8894;BME280;4483;48.622;9.230;2022-08-03T05:22:09;97918.25;;;21.22;73.46
8894;BME280;4483;48.622;9.230;2022-08-03T05:24:35;97918.06;;;21.34;73.01
8894;BME280;4483;48.622;9.230;2022-08-03T05:27:02;97915.47;;;21.55;72.20
8894;BME280;4483;48.622;9.230;2022-08-03T05:29:29;97921.53;;;21.76;70.97
8894;BME280;4483;48.622;9.230;2022-08-03T05:31:55;97908.84;;;22.02;70.60
8894;BME280;4483;48.622;9.230;2022-08-03T05:34:22;97914.06;;;22.22;69.54
8894;BME280;4483;48.622;9.230;2022-08-03T05:36:48;97926.97;;;22.44;68.82
8894;BME280;4483;48.622;9.230;2022-08-03T05:39:16;97918.75;;;22.58;68.24
8894;BME280;4483;48.622;9.230;2022-08-03T05:41:43;97922.66;;;22.73;67.49
8894;BME280;4483;48.622;9.230;2022-08-03T05:44:10;97925.88;;;22.86;66.99
8894;BME280;4483;48.622;9.230;2022-08-03T05:46:36;97920.34;;;22.99;67.04
8894;BME280;4483;48.622;9.230;2022-08-03T05:49:03;97921.47;;;23.16;66.30
8894;BME280;4483;48.622;9.230;2022-08-03T05:51:29;97916.50;;;23.32;65.70
8894;BME280;4483;48.622;9.230;2022-08-03T05:53:56;97915.97;;;23.47;65.00
8894;BME280;4483;48.622;9.230;2022-08-03T05:56:24;97922.03;;;23.57;64.41
8894;BME280;4483;48.622;9.230;2022-08-03T05:58:51;97913.97;;;23.68;64.19
8894;BME280;4483;48.622;9.230;2022-08-03T06:01:19;97908.41;;;23.81;64.11
8894;BME280;4483;48.622;9.230;2022-08-03T06:03:47;97913.22;;;24.05;63.84
8894;BME280;4483;48.622;9.230;2022-08-03T06:06:14;97920.22;;;24.23;63.58
8894;BME280;4483;48.622;9.230;2022-08-03T06:08:42;97915.56;;;24.44;63.30
8894;BME280;4483;48.622;9.230;2022-08-03T06:11:09;97918.22;;;24.62;63.25
8894;BME280;4483;48.622;9.230;2022-08-03T06:13:37;97917.91;;;24.74;62.54
8894;BME280;4483;48.622;9.230;2022-08-03T06:16:04;97903.03;;;24.83;62.50
8894;BME280;4483;48.622;9.230;2022-08-03T06:18:31;97905.81;;;24.99;62.24
8894;BME280;4483;48.622;9.230;2022-08-03T06:20:58;97912.50;;;25.11;61.78
8894;BME280;4483;48.622;9.230;2022-08-03T06:23:24;97910.38;;;25.15;61.31
8894;BME280;4483;48.622;9.230;2022-08-03T06:25:51;97908.00;;;25.21;61.05
8894;BME280;4483;48.622;9.230;2022-08-03T06:28:18;97912.56;;;25.37;61.04
8894;BME280;4483;48.622;9.230;2022-08-03T06:30:46;97909.56;;;25.49;60.59
8894;BME280;4483;48.622;9.230;2022-08-03T06:33:12;97907.59;;;25.69;60.50
8894;BME280;4483;48.622;9.230;2022-08-03T06:35:39;97911.34;;;25.92;60.46
8894;BME280;4483;48.622;9.230;2022-08-03T06:38:05;97905.75;;;26.13;59.54
8894;BME280;4483;48.622;9.230;2022-08-03T06:40:34;97913.91;;;26.27;59.29
8894;BME280;4483;48.622;9.230;2022-08-03T06:43:04;97912.31;;;26.42;59.37
8894;BME280;4483;48.622;9.230;2022-08-03T06:45:32;97913.69;;;26.54;58.96
8894;BME280;4483;48.622;9.230;2022-08-03T06:48:02;97904.47;;;26.66;58.13
8894;BME280;4483;48.622;9.230;2022-08-03T06:50:31;97914.75;;;26.77;58.16
8894;BME280;4483;48.622;9.230;2022-08-03T06:52:58;97916.13;;;26.90;57.87
8894;BME280;4483;48.622;9.230;2022-08-03T06:55:25;97901.59;;;27.02;57.47
8894;BME280;4483;48.622;9.230;2022-08-03T06:57:52;97911.53;;;27.24;56.59
8894;BME280;4483;48.622;9.230;2022-08-03T07:00:18;97915.56;;;27.44;56.64
8894;BME280;4483;48.622;9.230;2022-08-03T07:02:46;97908.59;;;27.59;56.13
8894;BME280;4483;48.622;9.230;2022-08-03T07:05:14;97906.47;;;27.70;55.64
8894;BME280;4483;48.622;9.230;2022-08-03T07:07:41;97912.38;;;27.80;55.49
8894;BME280;4483;48.622;9.230;2022-08-03T07:10:09;97910.75;;;27.96;55.45
8894;BME280;4483;48.622;9.230;2022-08-03T07:12:37;97912.88;;;28.00;54.55
8894;BME280;4483;48.622;9.230;2022-08-03T07:15:05;97906.22;;;28.12;53.99
8894;BME280;4483;48.622;9.230;2022-08-03T07:17:34;97903.81;;;28.33;54.39
8894;BME280;4483;48.622;9.230;2022-08-03T07:20:02;97906.44;;;28.49;53.63
8894;BME280;4483;48.622;9.230;2022-08-03T07:22:30;97899.91;;;28.68;53.42
8894;BME280;4483;48.622;9.230;2022-08-03T07:24:57;97898.97;;;28.92;52.88
8894;BME280;4483;48.622;9.230;2022-08-03T07:27:24;97896.00;;;29.09;52.49
8894;BME280;4483;48.622;9.230;2022-08-03T07:29:52;97897.03;;;29.31;52.20
8894;BME280;4483;48.622;9.230;2022-08-03T07:32:19;97903.59;;;29.43;50.87
8894;BME280;4483;48.622;9.230;2022-08-03T07:34:46;97903.69;;;29.49;50.99
8894;BME280;4483;48.622;9.230;2022-08-03T07:37:12;97900.22;;;29.63;50.30
8894;BME280;4483;48.622;9.230;2022-08-03T07:39:40;97894.53;;;29.89;50.33
8894;BME280;4483;48.622;9.230;2022-08-03T07:42:07;97896.69;;;30.08;49.45
8894;BME280;4483;48.622;9.230;2022-08-03T07:44:34;97900.47;;;30.28;49.46
8894;BME280;4483;48.622;9.230;2022-08-03T07:47:00;97900.19;;;30.38;49.00
8894;BME280;4483;48.622;9.230;2022-08-03T07:49:27;97902.38;;;30.49;48.96
8894;BME280;4483;48.622;9.230;2022-08-03T07:51:53;97904.19;;;30.63;48.50
8894;BME280;4483;48.622;9.230;2022-08-03T07:54:34;97894.88;;;30.88;48.17
8894;BME280;4483;48.622;9.230;2022-08-03T07:57:02;97897.53;;;31.24;48.07
8894;BME280;4483;48.622;9.230;2022-08-03T07:59:29;97894.31;;;31.49;47.01
8894;BME280;4483;48.622;9.230;2022-08-03T08:01:55;97890.53;;;31.65;46.51
8894;BME280;4483;48.622;9.230;2022-08-03T08:04:22;97887.13;;;31.78;46.33
8894;BME280;4483;48.622;9.230;2022-08-03T08:06:49;97881.03;;;31.84;45.30
8894;BME280;4483;48.622;9.230;2022-08-03T08:09:15;97858.66;;;31.78;45.87
8894;BME280;4483;48.622;9.230;2022-08-03T08:11:42;97874.22;;;32.02;45.73
8894;BME280;4483;48.622;9.230;2022-08-03T08:14:10;97873.03;;;32.11;44.89
8894;BME280;4483;48.622;9.230;2022-08-03T08:16:36;97879.44;;;32.23;44.90
8894;BME280;4483;48.622;9.230;2022-08-03T08:19:03;97875.13;;;32.56;44.41
8894;BME280;4483;48.622;9.230;2022-08-03T08:21:30;97884.75;;;33.05;43.92
8894;BME280;4483;48.622;9.230;2022-08-03T08:23:57;97878.00;;;33.35;42.88
8894;BME280;4483;48.622;9.230;2022-08-03T08:26:24;97874.16;;;33.50;41.78
8894;BME280;4483;48.622;9.230;2022-08-03T08:28:50;97875.78;;;33.65;41.47
8894;BME280;4483;48.622;9.230;2022-08-03T08:31:19;97870.44;;;33.51;41.10
8894;BME280;4483;48.622;9.230;2022-08-03T08:33:45;97877.44;;;33.66;41.09
8894;BME280;4483;48.622;9.230;2022-08-03T08:36:12;97868.16;;;33.94;41.20
8894;BME280;4483;48.622;9.230;2022-08-03T08:38:38;97878.81;;;34.14;40.40
8894;BME280;4483;48.622;9.230;2022-08-03T08:41:07;97858.03;;;34.22;40.11
8894;BME280;4483;48.622;9.230;2022-08-03T08:43:34;97877.38;;;34.24;39.41
8894;BME280;4483;48.622;9.230;2022-08-03T08:46:01;97868.50;;;34.37;38.66
8894;BME280;4483;48.622;9.230;2022-08-03T08:48:29;97870.47;;;34.61;38.73
8894;BME280;4483;48.622;9.230;2022-08-03T08:50:56;97867.25;;;34.84;38.01
8894;BME280;4483;48.622;9.230;2022-08-03T08:53:25;97862.00;;;35.08;37.81
8894;BME280;4483;48.622;9.230;2022-08-03T08:55:54;97859.66;;;35.18;37.02
8894;BME280;4483;48.622;9.230;2022-08-03T08:58:25;97866.13;;;35.35;36.88
8894;BME280;4483;48.622;9.230;2022-08-03T09:00:54;97867.97;;;35.66;36.31
8894;BME280;4483;48.622;9.230;2022-08-03T09:03:20;97863.53;;;35.78;35.06
8894;BME280;4483;48.622;9.230;2022-08-03T09:05:48;97862.03;;;35.82;34.00
8894;BME280;4483;48.622;9.230;2022-08-03T09:08:15;97861.06;;;36.01;34.51
8894;BME280;4483;48.622;9.230;2022-08-03T09:10:42;97862.34;;;36.17;34.06
8894;BME280;4483;48.622;9.230;2022-08-03T09:13:09;97861.97;;;36.31;33.80
8894;BME280;4483;48.622;9.230;2022-08-03T09:15:36;97859.38;;;36.43;33.32
8894;BME280;4483;48.622;9.230;2022-08-03T09:18:03;97850.88;;;36.46;32.69
8894;BME280;4483;48.622;9.230;2022-08-03T09:20:33;97851.66;;;36.65;33.45
8894;BME280;4483;48.622;9.230;2022-08-03T09:23:03;97833.63;;;36.72;32.79
8894;BME280;4483;48.622;9.230;2022-08-03T09:25:34;97849.38;;;36.98;32.14
8894;BME280;4483;48.622;9.230;2022-08-03T09:28:09;97842.28;;;37.15;31.94
8894;BME280;4483;48.622;9.230;2022-08-03T09:30:37;97836.81;;;37.21;32.24
8894;BME280;4483;48.622;9.230;2022-08-03T09:33:06;97850.31;;;37.33;31.32
8894;BME280;4483;48.622;9.230;2022-08-03T09:35:39;97843.91;;;37.46;31.43
8894;BME280;4483;48.622;9.230;2022-08-03T09:38:12;97843.69;;;37.59;30.77
8894;BME280;4483;48.622;9.230;2022-08-03T09:40:39;97838.56;;;37.80;30.90
8894;BME280;4483;48.622;9.230;2022-08-03T09:43:06;97840.66;;;37.90;30.57
8894;BME280;4483;48.622;9.230;2022-08-03T09:45:34;97839.50;;;37.97;30.42
8894;BME280;4483;48.622;9.230;2022-08-03T09:48:20;97838.53;;;38.15;30.71
8894;BME280;4483;48.622;9.230;2022-08-03T09:50:48;97836.06;;;38.37;30.36
8894;BME280;4483;48.622;9.230;2022-08-03T09:53:17;97837.19;;;38.52;30.23
8894;BME280;4483;48.622;9.230;2022-08-03T09:55:51;97842.75;;;38.74;30.17
8894;BME280;4483;48.622;9.230;2022-08-03T09:58:19;97840.72;;;38.81;30.52
8894;BME280;4483;48.622;9.230;2022-08-03T10:00:57;97834.56;;;38.69;29.44
8894;BME280;4483;48.622;9.230;2022-08-03T10:03:25;97838.78;;;38.65;29.60
8894;BME280;4483;48.622;9.230;2022-08-03T10:05:52;97830.53;;;38.83;29.41
8894;BME280;4483;48.622;9.230;2022-08-03T10:08:20;97830.59;;;39.16;29.00
8894;BME280;4483;48.622;9.230;2022-08-03T10:10:49;97830.69;;;39.38;28.39
8894;BME280;4483;48.622;9.230;2022-08-03T10:13:19;97830.28;;;39.46;28.13
8894;BME280;4483;48.622;9.230;2022-08-03T10:15:46;97815.28;;;39.66;28.85
8894;BME280;4483;48.622;9.230;2022-08-03T10:18:13;97813.84;;;39.97;28.77
8894;BME280;4483;48.622;9.230;2022-08-03T10:20:44;97821.69;;;40.20;28.18
8894;BME280;4483;48.622;9.230;2022-08-03T10:23:12;97811.97;;;40.19;27.88
8894;BME280;4483;48.622;9.230;2022-08-03T10:25:42;97816.81;;;40.17;27.93
8894;BME280;4483;48.622;9.230;2022-08-03T10:28:12;97809.47;;;40.13;28.31
8894;BME280;4483;48.622;9.230;2022-08-03T10:30:42;97807.97;;;40.22;27.68
8894;BME280;4483;48.622;9.230;2022-08-03T10:33:15;97809.00;;;40.37;27.60
8894;BME280;4483;48.622;9.230;2022-08-03T10:35:43;97812.00;;;40.41;28.11
8894;BME280;4483;48.622;9.230;2022-08-03T10:38:17;97805.03;;;40.45;28.72
8894;BME280;4483;48.622;9.230;2022-08-03T10:40:47;97793.16;;;40.46;28.46
8894;BME280;4483;48.622;9.230;2022-08-03T10:43:18;97794.72;;;40.63;28.34
8894;BME280;4483;48.622;9.230;2022-08-03T10:45:46;97795.47;;;40.80;28.06
8894;BME280;4483;48.622;9.230;2022-08-03T10:48:12;97793.31;;;40.82;27.50
8894;BME280;4483;48.622;9.230;2022-08-03T10:50:40;97791.97;;;40.85;27.97
8894;BME280;4483;48.622;9.230;2022-08-03T10:53:08;97786.34;;;40.65;27.17
8894;BME280;4483;48.622;9.230;2022-08-03T10:55:37;97789.31;;;40.63;27.66
8894;BME280;4483;48.622;9.230;2022-08-03T10:58:47;97785.22;;;40.61;27.17
8894;BME280;4483;48.622;9.230;2022-08-03T11:01:16;97788.44;;;40.58;27.12
8894;BME280;4483;48.622;9.230;2022-08-03T11:04:14;97786.25;;;40.76;27.31
8894;BME280;4483;48.622;9.230;2022-08-03T11:06:43;97787.31;;;41.07;26.80
8894;BME280;4483;48.622;9.230;2022-08-03T11:09:15;97782.19;;;41.37;26.34
8894;BME280;4483;48.622;9.230;2022-08-03T11:11:42;97781.38;;;41.68;25.41
8894;BME280;4483;48.622;9.230;2022-08-03T11:14:13;97783.16;;;41.99;25.71
8894;BME280;4483;48.622;9.230;2022-08-03T11:16:41;97777.03;;;42.24;25.20
8894;BME280;4483;48.622;9.230;2022-08-03T11:19:11;97779.28;;;41.85;23.57
8894;BME280;4483;48.622;9.230;2022-08-03T11:21:57;97771.06;;;41.34;23.95
8894;BME280;4483;48.622;9.230;2022-08-03T11:24:55;97767.56;;;41.33;24.45
8894;BME280;4483;48.622;9.230;2022-08-03T11:27:23;97761.75;;;41.56;24.39
8894;BME280;4483;48.622;9.230;2022-08-03T11:29:56;97760.75;;;41.62;24.93
8894;BME280;4483;48.622;9.230;2022-08-03T11:32:53;97765.69;;;41.75;24.41
8894;BME280;4483;48.622;9.230;2022-08-03T11:35:24;97761.34;;;41.74;24.29
8894;BME280;4483;48.622;9.230;2022-08-03T11:38:07;97761.75;;;41.56;24.08
8894;BME280;4483;48.622;9.230;2022-08-03T11:40:39;97753.38;;;41.58;24.58
8894;BME280;4483;48.622;9.230;2022-08-03T11:43:07;97759.53;;;41.48;24.07
8894;BME280;4483;48.622;9.230;2022-08-03T11:45:36;97757.47;;;41.24;24.53
8894;BME280;4483;48.622;9.230;2022-08-03T11:48:13;97758.19;;;41.14;24.43
8894;BME280;4483;48.622;9.230;2022-08-03T11:50:40;97758.31;;;41.24;24.51
8894;BME280;4483;48.622;9.230;2022-08-03T11:53:13;97753.84;;;41.45;24.47
8894;BME280;4483;48.622;9.230;2022-08-03T11:55:41;97757.81;;;41.74;23.19
8894;BME280;4483;48.622;9.230;2022-08-03T11:58:15;97755.88;;;42.11;22.98
8894;BME280;4483;48.622;9.230;2022-08-03T12:00:43;97749.34;;;42.07;23.00
8894;BME280;4483;48.622;9.230;2022-08-03T12:03:11;97739.25;;;41.92;23.27
8894;BME280;4483;48.622;9.230;2022-08-03T12:05:46;97740.78;;;41.73;23.94
8894;BME280;4483;48.622;9.230;2022-08-03T12:08:15;97742.66;;;41.26;24.51
8894;BME280;4483;48.622;9.230;2022-08-03T12:10:47;97743.69;;;40.93;24.37
8894;BME280;4483;48.622;9.230;2022-08-03T12:13:15;97753.97;;;40.70;25.50
8894;BME280;4483;48.622;9.230;2022-08-03T12:15:49;97751.78;;;40.67;24.96
8894;BME280;4483;48.622;9.230;2022-08-03T12:18:17;97742.03;;;40.87;25.09
8894;BME280;4483;48.622;9.230;2022-08-03T12:20:47;97732.78;;;41.15;25.55
8894;BME280;4483;48.622;9.230;2022-08-03T12:23:14;97736.19;;;41.32;24.76
8894;BME280;4483;48.622;9.230;2022-08-03T12:25:42;97728.44;;;41.46;24.83
8894;BME280;4483;48.622;9.230;2022-08-03T12:28:15;97737.41;;;41.51;24.99
8894;BME280;4483;48.622;9.230;2022-08-03T12:30:46;97732.09;;;41.66;23.97
8894;BME280;4483;48.622;9.230;2022-08-03T12:33:18;97730.34;;;41.50;24.23
8894;BME280;4483;48.622;9.230;2022-08-03T12:35:46;97733.81;;;41.09;24.14
8894;BME280;4483;48.622;9.230;2022-08-03T12:38:18;97725.13;;;41.02;25.42
8894;BME280;4483;48.622;9.230;2022-08-03T12:40:58;97727.84;;;41.07;24.76
8894;BME280;4483;48.622;9.230;2022-08-03T12:43:25;97717.13;;;40.59;25.20
8894;BME280;4483;48.622;9.230;2022-08-03T12:46:10;97720.34;;;40.56;25.10
8894;BME280;4483;48.622;9.230;2022-08-03T12:49:02;97723.66;;;40.63;25.46
8894;BME280;4483;48.622;9.230;2022-08-03T12:51:32;97710.72;;;40.65;25.51
8894;BME280;4483;48.622;9.230;2022-08-03T12:53:59;97715.59;;;40.68;25.08
8894;BME280;4483;48.622;9.230;2022-08-03T12:56:26;97715.66;;;40.73;25.33
8894;BME280;4483;48.622;9.230;2022-08-03T12:58:53;97712.25;;;40.56;24.64
8894;BME280;4483;48.622;9.230;2022-08-03T13:01:21;97709.81;;;40.54;25.41
8894;BME280;4483;48.622;9.230;2022-08-03T13:03:50;97708.31;;;40.68;25.13
8894;BME280;4483;48.622;9.230;2022-08-03T13:06:19;97703.78;;;40.74;24.78
8894;BME280;4483;48.622;9.230;2022-08-03T13:08:46;97700.03;;;40.75;24.90
8894;BME280;4483;48.622;9.230;2022-08-03T13:11:20;97712.09;;;40.41;25.09
8894;BME280;4483;48.622;9.230;2022-08-03T13:13:47;97707.84;;;40.23;25.40
8894;BME280;4483;48.622;9.230;2022-08-03T13:16:13;97711.13;;;40.03;25.86
8894;BME280;4483;48.622;9.230;2022-08-03T13:18:42;97707.13;;;39.68;25.83
8894;BME280;4483;48.622;9.230;2022-08-03T13:21:11;97707.09;;;39.46;26.43
8894;BME280;4483;48.622;9.230;2022-08-03T13:23:38;97704.50;;;39.51;27.08
8894;BME280;4483;48.622;9.230;2022-08-03T13:26:05;97710.03;;;39.61;27.67
8894;BME280;4483;48.622;9.230;2022-08-03T13:28:31;97701.19;;;39.66;26.54
8894;BME280;4483;48.622;9.230;2022-08-03T13:30:58;97704.81;;;39.38;26.98
8894;BME280;4483;48.622;9.230;2022-08-03T13:33:25;97702.88;;;39.00;26.86
8894;BME280;4483;48.622;9.230;2022-08-03T13:35:54;97702.81;;;38.95;27.29